sensor_id;sensor_type;location;lat;lon;timestamp;P1;durP1;ratioP1;P2;durP2;ratioP2
76236;SDS011;65038;53.200;6.530;2023-03-23T00:00:50;8.88;;;5.70;;
76236;SDS011;65038;53.200;6.530;2023-03-23T00:03:16;11.23;;;6.57;;
76236;SDS011;65038;53.200;6.530;2023-03-23T00:05:43;12.15;;;7.75;;
76236;SDS011;65038;53.200;6.530;2023-03-23T00:08:15;15.25;;;9.43;;
76236;SDS011;65038;53.200;6.530;2023-03-23T00:10:41;15.35;;;10.00;;
76236;SDS011;65038;53.200;6.530;2023-03-23T00:13:07;15.95;;;10.93;;
76236;SDS011;65038;53.200;6.530;2023-03-23T00:15:36;17.33;;;11.75;;
76236;SDS011;65038;53.200;6.530;2023-03-23T00:18:06;22.42;;;13.57;;
76236;SDS011;65038;53.200;6.530;2023-03-23T00:20:32;21.13;;;14.05;;
76236;SDS011;65038;53.200;6.530;2023-03-23T00:23:06;22.70;;;14.05;;
76236;SDS011;65038;53.200;6.530;2023-03-23T00:25:32;18.08;;;11.98;;
76236;SDS011;65038;53.200;6.530;2023-03-23T00:27:58;13.98;;;9.23;;
76236;SDS011;65038;53.200;6.530;2023-03-23T00:30:25;13.55;;;9.25;;
76236;SDS011;65038;53.200;6.530;2023-03-23T00:32:51;14.80;;;9.32;;
76236;SDS011;65038;53.200;6.530;2023-03-23T00:35:17;13.07;;;8.80;;
76236;SDS011;65038;53.200;6.530;2023-03-23T00:37:45;15.18;;;10.07;;
76236;SDS011;65038;53.200;6.530;2023-03-23T00:40:12;16.77;;;12.43;;
76236;SDS011;65038;53.200;6.530;2023-03-23T00:42:40;20.40;;;13.63;;
76236;SDS011;65038;53.200;6.530;2023-03-23T00:45:06;19.42;;;13.93;;
76236;SDS011;65038;53.200;6.530;2023-03-23T00:47:36;22.90;;;15.00;;
76236;SDS011;65038;53.200;6.530;2023-03-23T00:50:03;24.60;;;15.25;;
76236;SDS011;65038;53.200;6.530;2023-03-23T00:52:32;22.13;;;14.40;;
76236;SDS011;65038;53.200;6.530;2023-03-23T00:54:58;17.25;;;13.65;;
76236;SDS011;65038;53.200;6.530;2023-03-23T00:57:24;19.35;;;12.57;;
76236;SDS011;65038;53.200;6.530;2023-03-23T00:59:51;15.93;;;10.60;;
76236;SDS011;65038;53.200;6.530;2023-03-23T01:02:17;13.63;;;8.85;;
76236;SDS011;65038;53.200;6.530;2023-03-23T01:04:44;13.27;;;8.25;;
76236;SDS011;65038;53.200;6.530;2023-03-23T01:07:10;8.70;;;5.60;;
76236;SDS011;65038;53.200;6.530;2023-03-23T01:09:43;7.32;;;4.20;;
76236;SDS011;65038;53.200;6.530;2023-03-23T01:12:09;7.10;;;3.65;;
76236;SDS011;65038;53.200;6.530;2023-03-23T01:14:35;7.15;;;3.00;;
76236;SDS011;65038;53.200;6.530;2023-03-23T01:17:01;4.80;;;2.17;;
76236;SDS011;65038;53.200;6.530;2023-03-23T01:19:28;5.28;;;2.33;;
76236;SDS011;65038;53.200;6.530;2023-03-23T01:21:54;4.30;;;2.13;;
76236;SDS011;65038;53.200;6.530;2023-03-23T01:24:20;5.28;;;2.50;;
76236;SDS011;65038;53.200;6.530;2023-03-23T01:26:47;5.85;;;3.17;;
76236;SDS011;65038;53.200;6.530;2023-03-23T01:29:13;6.65;;;3.97;;
76236;SDS011;65038;53.200;6.530;2023-03-23T01:31:39;9.07;;;5.10;;
76236;SDS011;65038;53.200;6.530;2023-03-23T01:34:07;7.88;;;5.50;;
76236;SDS011;65038;53.200;6.530;2023-03-23T01:36:33;11.25;;;6.25;;
76236;SDS011;65038;53.200;6.530;2023-03-23T01:39:00;12.52;;;6.85;;
76236;SDS011;65038;53.200;6.530;2023-03-23T01:41:28;9.60;;;6.43;;
76236;SDS011;65038;53.200;6.530;2023-03-23T01:46:20;10.15;;;6.50;;
76236;SDS011;65038;53.200;6.530;2023-03-23T01:48:47;11.90;;;7.00;;
76236;SDS011;65038;53.200;6.530;2023-03-23T01:51:15;10.20;;;6.57;;
76236;SDS011;65038;53.200;6.530;2023-03-23T01:53:43;13.52;;;7.18;;
76236;SDS011;65038;53.200;6.530;2023-03-23T01:56:10;10.73;;;6.60;;
76236;SDS011;65038;53.200;6.530;2023-03-23T01:58:38;12.07;;;7.10;;
76236;SDS011;65038;53.200;6.530;2023-03-23T02:01:06;14.63;;;6.82;;
76236;SDS011;65038;53.200;6.530;2023-03-23T02:03:34;13.50;;;7.30;;
76236;SDS011;65038;53.200;6.530;2023-03-23T02:06:00;14.48;;;6.93;;
76236;SDS011;65038;53.200;6.530;2023-03-23T02:08:27;10.07;;;6.32;;
76236;SDS011;65038;53.200;6.530;2023-03-23T02:10:54;11.60;;;7.10;;
76236;SDS011;65038;53.200;6.530;2023-03-23T02:13:20;12.73;;;6.30;;
76236;SDS011;65038;53.200;6.530;2023-03-23T02:19:00;13.10;;;6.57;;
76236;SDS011;65038;53.200;6.530;2023-03-23T02:26:24;11.38;;;5.47;;
76236;SDS011;65038;53.200;6.530;2023-03-23T02:34:17;10.68;;;6.20;;
76236;SDS011;65038;53.200;6.530;2023-03-23T02:36:45;10.02;;;5.10;;
76236;SDS011;65038;53.200;6.530;2023-03-23T02:39:13;9.07;;;5.40;;
76236;SDS011;65038;53.200;6.530;2023-03-23T02:41:45;9.80;;;5.13;;
76236;SDS011;65038;53.200;6.530;2023-03-23T02:44:12;9.52;;;4.68;;
76236;SDS011;65038;53.200;6.530;2023-03-23T02:46:39;9.50;;;4.85;;
76236;SDS011;65038;53.200;6.530;2023-03-23T02:49:06;10.23;;;5.15;;
76236;SDS011;65038;53.200;6.530;2023-03-23T02:51:33;11.38;;;4.75;;
76236;SDS011;65038;53.200;6.530;2023-03-23T02:54:00;9.32;;;4.82;;
76236;SDS011;65038;53.200;6.530;2023-03-23T02:56:26;10.07;;;4.80;;
76236;SDS011;65038;53.200;6.530;2023-03-23T02:58:54;12.50;;;4.65;;
76236;SDS011;65038;53.200;6.530;2023-03-23T03:03:53;9.23;;;4.65;;
76236;SDS011;65038;53.200;6.530;2023-03-23T03:06:25;8.32;;;4.20;;
76236;SDS011;65038;53.200;6.530;2023-03-23T03:09:05;9.82;;;4.50;;
76236;SDS011;65038;53.200;6.530;2023-03-23T03:11:33;9.85;;;4.40;;
76236;SDS011;65038;53.200;6.530;2023-03-23T03:14:04;11.68;;;4.65;;
76236;SDS011;65038;53.200;6.530;2023-03-23T03:16:33;7.85;;;4.03;;
76236;SDS011;65038;53.200;6.530;2023-03-23T03:19:09;7.82;;;4.15;;
76236;SDS011;65038;53.200;6.530;2023-03-23T03:21:38;10.55;;;4.22;;
76236;SDS011;65038;53.200;6.530;2023-03-23T03:24:06;7.63;;;3.70;;
76236;SDS011;65038;53.200;6.530;2023-03-23T03:26:36;8.48;;;4.22;;
76236;SDS011;65038;53.200;6.530;2023-03-23T03:29:03;8.52;;;3.97;;
76236;SDS011;65038;53.200;6.530;2023-03-23T03:31:32;6.53;;;3.40;;
76236;SDS011;65038;53.200;6.530;2023-03-23T03:33:58;8.25;;;3.78;;
76236;SDS011;65038;53.200;6.530;2023-03-23T03:36:27;8.00;;;3.67;;
76236;SDS011;65038;53.200;6.530;2023-03-23T03:38:59;9.05;;;4.07;;
76236;SDS011;65038;53.200;6.530;2023-03-23T03:41:28;7.03;;;3.60;;
76236;SDS011;65038;53.200;6.530;2023-03-23T03:43:55;8.00;;;3.72;;
76236;SDS011;65038;53.200;6.530;2023-03-23T03:46:21;7.85;;;3.75;;
76236;SDS011;65038;53.200;6.530;2023-03-23T03:48:47;8.00;;;4.32;;
76236;SDS011;65038;53.200;6.530;2023-03-23T03:51:13;8.57;;;3.90;;
76236;SDS011;65038;53.200;6.530;2023-03-23T03:53:39;8.95;;;3.72;;
76236;SDS011;65038;53.200;6.530;2023-03-23T03:56:05;8.98;;;4.40;;
76236;SDS011;65038;53.200;6.530;2023-03-23T03:58:32;8.68;;;3.50;;
76236;SDS011;65038;53.200;6.530;2023-03-23T04:01:01;13.38;;;4.18;;
76236;SDS011;65038;53.200;6.530;2023-03-23T04:03:27;12.20;;;4.47;;
76236;SDS011;65038;53.200;6.530;2023-03-23T04:05:54;9.20;;;4.05;;
76236;SDS011;65038;53.200;6.530;2023-03-23T04:08:23;9.38;;;3.35;;
76236;SDS011;65038;53.200;6.530;2023-03-23T04:10:51;7.07;;;3.30;;
76236;SDS011;65038;53.200;6.530;2023-03-23T04:13:18;6.72;;;3.38;;
76236;SDS011;65038;53.200;6.530;2023-03-23T04:15:45;7.20;;;2.70;;
76236;SDS011;65038;53.200;6.530;2023-03-23T04:18:12;4.63;;;1.80;;
76236;SDS011;65038;53.200;6.530;2023-03-23T04:20:39;4.32;;;1.65;;
76236;SDS011;65038;53.200;6.530;2023-03-23T04:23:05;3.75;;;1.40;;
76236;SDS011;65038;53.200;6.530;2023-03-23T04:25:32;4.50;;;1.38;;
76236;SDS011;65038;53.200;6.530;2023-03-23T04:27:58;3.75;;;1.40;;
76236;SDS011;65038;53.200;6.530;2023-03-23T04:30:26;4.85;;;1.98;;
76236;SDS011;65038;53.200;6.530;2023-03-23T04:32:52;5.22;;;1.85;;
76236;SDS011;65038;53.200;6.530;2023-03-23T04:35:22;6.30;;;2.50;;
76236;SDS011;65038;53.200;6.530;2023-03-23T04:37:53;7.82;;;1.95;;
76236;SDS011;65038;53.200;6.530;2023-03-23T04:40:19;4.43;;;1.85;;
76236;SDS011;65038;53.200;6.530;2023-03-23T04:42:45;6.07;;;2.50;;
76236;SDS011;65038;53.200;6.530;2023-03-23T04:45:13;7.85;;;2.30;;
76236;SDS011;65038;53.200;6.530;2023-03-23T04:47:40;7.78;;;2.28;;
76236;SDS011;65038;53.200;6.530;2023-03-23T04:50:10;7.95;;;2.10;;
76236;SDS011;65038;53.200;6.530;2023-03-23T04:52:38;8.75;;;2.30;;
76236;SDS011;65038;53.200;6.530;2023-03-23T04:55:05;5.00;;;1.80;;
76236;SDS011;65038;53.200;6.530;2023-03-23T04:57:31;6.70;;;1.95;;
76236;SDS011;65038;53.200;6.530;2023-03-23T04:59:58;6.05;;;1.60;;
76236;SDS011;65038;53.200;6.530;2023-03-23T05:02:24;5.90;;;1.73;;
76236;SDS011;65038;53.200;6.530;2023-03-23T05:04:50;6.88;;;1.85;;
76236;SDS011;65038;53.200;6.530;2023-03-23T05:07:16;8.45;;;2.15;;
76236;SDS011;65038;53.200;6.530;2023-03-23T05:09:46;6.70;;;2.15;;
76236;SDS011;65038;53.200;6.530;2023-03-23T05:12:12;6.82;;;2.15;;
76236;SDS011;65038;53.200;6.530;2023-03-23T05:14:40;9.32;;;2.70;;
76236;SDS011;65038;53.200;6.530;2023-03-23T05:17:06;9.57;;;3.10;;
76236;SDS011;65038;53.200;6.530;2023-03-23T05:19:32;9.43;;;3.10;;
76236;SDS011;65038;53.200;6.530;2023-03-23T05:21:58;10.27;;;2.80;;
76236;SDS011;65038;53.200;6.530;2023-03-23T05:24:29;10.40;;;3.50;;
76236;SDS011;65038;53.200;6.530;2023-03-23T05:26:56;9.07;;;3.50;;
76236;SDS011;65038;53.200;6.530;2023-03-23T05:29:22;11.00;;;4.15;;
76236;SDS011;65038;53.200;6.530;2023-03-23T05:31:49;9.55;;;3.70;;
76236;SDS011;65038;53.200;6.530;2023-03-23T05:34:15;9.68;;;3.42;;
76236;SDS011;65038;53.200;6.530;2023-03-23T05:36:41;8.98;;;3.17;;
76236;SDS011;65038;53.200;6.530;2023-03-23T05:39:09;12.18;;;3.42;;
76236;SDS011;65038;53.200;6.530;2023-03-23T05:41:35;13.23;;;3.33;;
76236;SDS011;65038;53.200;6.530;2023-03-23T05:44:01;13.05;;;3.53;;
76236;SDS011;65038;53.200;6.530;2023-03-23T05:46:27;12.25;;;3.22;;
76236;SDS011;65038;53.200;6.530;2023-03-23T05:48:53;14.35;;;3.30;;
76236;SDS011;65038;53.200;6.530;2023-03-23T05:51:19;11.85;;;3.25;;
76236;SDS011;65038;53.200;6.530;2023-03-23T05:53:45;16.65;;;3.45;;
76236;SDS011;65038;53.200;6.530;2023-03-23T05:56:13;12.05;;;3.08;;
76236;SDS011;65038;53.200;6.530;2023-03-23T05:58:39;12.60;;;3.33;;
76236;SDS011;65038;53.200;6.530;2023-03-23T06:01:06;13.73;;;3.42;;
76236;SDS011;65038;53.200;6.530;2023-03-23T06:03:32;15.23;;;3.20;;
76236;SDS011;65038;53.200;6.530;2023-03-23T06:06:00;15.02;;;3.20;;
76236;SDS011;65038;53.200;6.530;2023-03-23T06:08:26;17.55;;;3.40;;
76236;SDS011;65038;53.200;6.530;2023-03-23T06:10:52;15.18;;;3.20;;
76236;SDS011;65038;53.200;6.530;2023-03-23T06:13:18;19.13;;;3.80;;
76236;SDS011;65038;53.200;6.530;2023-03-23T06:15:44;18.23;;;3.75;;
76236;SDS011;65038;53.200;6.530;2023-03-23T06:18:10;19.00;;;3.92;;
76236;SDS011;65038;53.200;6.530;2023-03-23T06:20:37;16.65;;;4.03;;
76236;SDS011;65038;53.200;6.530;2023-03-23T06:23:04;20.83;;;3.80;;
76236;SDS011;65038;53.200;6.530;2023-03-23T06:25:32;18.77;;;3.22;;
76236;SDS011;65038;53.200;6.530;2023-03-23T06:27:58;21.30;;;3.35;;
76236;SDS011;65038;53.200;6.530;2023-03-23T06:30:24;15.50;;;3.05;;
76236;SDS011;65038;53.200;6.530;2023-03-23T06:32:52;15.18;;;3.50;;
76236;SDS011;65038;53.200;6.530;2023-03-23T06:35:18;14.55;;;3.63;;
76236;SDS011;65038;53.200;6.530;2023-03-23T06:37:44;13.82;;;3.72;;
76236;SDS011;65038;53.200;6.530;2023-03-23T06:40:10;18.33;;;3.45;;
76236;SDS011;65038;53.200;6.530;2023-03-23T06:42:36;18.60;;;3.17;;
76236;SDS011;65038;53.200;6.530;2023-03-23T06:45:03;11.65;;;2.20;;
76236;SDS011;65038;53.200;6.530;2023-03-23T06:47:29;10.95;;;2.25;;
76236;SDS011;65038;53.200;6.530;2023-03-23T06:49:56;9.50;;;2.00;;
76236;SDS011;65038;53.200;6.530;2023-03-23T06:52:22;7.30;;;1.98;;
76236;SDS011;65038;53.200;6.530;2023-03-23T06:54:49;9.35;;;2.10;;
76236;SDS011;65038;53.200;6.530;2023-03-23T06:57:15;11.15;;;2.38;;
76236;SDS011;65038;53.200;6.530;2023-03-23T06:59:42;7.47;;;2.00;;
76236;SDS011;65038;53.200;6.530;2023-03-23T07:02:09;12.18;;;2.10;;
76236;SDS011;65038;53.200;6.530;2023-03-23T07:04:36;8.95;;;2.03;;
76236;SDS011;65038;53.200;6.530;2023-03-23T07:07:02;11.48;;;2.38;;
76236;SDS011;65038;53.200;6.530;2023-03-23T07:09:28;8.57;;;2.15;;
76236;SDS011;65038;53.200;6.530;2023-03-23T07:11:54;11.02;;;2.33;;
76236;SDS011;65038;53.200;6.530;2023-03-23T07:14:20;11.77;;;2.42;;
76236;SDS011;65038;53.200;6.530;2023-03-23T07:16:47;12.23;;;2.90;;
76236;SDS011;65038;53.200;6.530;2023-03-23T07:19:13;10.45;;;2.75;;
76236;SDS011;65038;53.200;6.530;2023-03-23T07:21:40;10.98;;;2.70;;
76236;SDS011;65038;53.200;6.530;2023-03-23T07:24:06;10.48;;;3.20;;
76236;SDS011;65038;53.200;6.530;2023-03-23T07:26:33;13.30;;;3.33;;
76236;SDS011;65038;53.200;6.530;2023-03-23T07:28:59;15.50;;;3.10;;
76236;SDS011;65038;53.200;6.530;2023-03-23T07:31:25;20.58;;;3.50;;
76236;SDS011;65038;53.200;6.530;2023-03-23T07:33:51;15.98;;;3.80;;
76236;SDS011;65038;53.200;6.530;2023-03-23T07:36:17;18.38;;;3.47;;
76236;SDS011;65038;53.200;6.530;2023-03-23T07:38:43;19.27;;;3.92;;
76236;SDS011;65038;53.200;6.530;2023-03-23T07:41:09;18.08;;;3.88;;
76236;SDS011;65038;53.200;6.530;2023-03-23T07:43:35;18.60;;;3.67;;
76236;SDS011;65038;53.200;6.530;2023-03-23T07:46:01;20.85;;;4.20;;
76236;SDS011;65038;53.200;6.530;2023-03-23T07:48:27;20.27;;;3.60;;
76236;SDS011;65038;53.200;6.530;2023-03-23T07:50:54;21.27;;;4.13;;
76236;SDS011;65038;53.200;6.530;2023-03-23T07:53:20;23.75;;;4.88;;
76236;SDS011;65038;53.200;6.530;2023-03-23T07:55:48;17.55;;;3.80;;
76236;SDS011;65038;53.200;6.530;2023-03-23T07:58:14;20.85;;;3.85;;
76236;SDS011;65038;53.200;6.530;2023-03-23T08:00:44;20.13;;;4.70;;
76236;SDS011;65038;53.200;6.530;2023-03-23T08:03:10;17.10;;;4.10;;
76236;SDS011;65038;53.200;6.530;2023-03-23T08:05:37;21.52;;;4.28;;
76236;SDS011;65038;53.200;6.530;2023-03-23T08:08:03;18.83;;;4.10;;
76236;SDS011;65038;53.200;6.530;2023-03-23T08:10:29;19.95;;;4.20;;
76236;SDS011;65038;53.200;6.530;2023-03-23T08:12:56;17.60;;;4.57;;
76236;SDS011;65038;53.200;6.530;2023-03-23T08:15:22;20.45;;;4.13;;
76236;SDS011;65038;53.200;6.530;2023-03-23T08:17:49;18.45;;;4.03;;
76236;SDS011;65038;53.200;6.530;2023-03-23T08:20:16;19.65;;;4.00;;
76236;SDS011;65038;53.200;6.530;2023-03-23T08:22:44;22.55;;;4.20;;
76236;SDS011;65038;53.200;6.530;2023-03-23T08:25:12;25.02;;;4.32;;
76236;SDS011;65038;53.200;6.530;2023-03-23T08:27:39;23.60;;;4.75;;
76236;SDS011;65038;53.200;6.530;2023-03-23T08:30:08;21.08;;;3.90;;
76236;SDS011;65038;53.200;6.530;2023-03-23T08:32:35;18.15;;;4.47;;
76236;SDS011;65038;53.200;6.530;2023-03-23T08:35:01;17.52;;;4.03;;
76236;SDS011;65038;53.200;6.530;2023-03-23T08:37:28;24.27;;;4.18;;
76236;SDS011;65038;53.200;6.530;2023-03-23T08:39:54;21.63;;;4.35;;
76236;SDS011;65038;53.200;6.530;2023-03-23T08:42:22;21.23;;;4.40;;
76236;SDS011;65038;53.200;6.530;2023-03-23T08:44:48;20.17;;;3.90;;
76236;SDS011;65038;53.200;6.530;2023-03-23T08:47:14;20.40;;;4.03;;
76236;SDS011;65038;53.200;6.530;2023-03-23T08:49:41;17.77;;;4.38;;
76236;SDS011;65038;53.200;6.530;2023-03-23T08:52:07;19.05;;;3.60;;
76236;SDS011;65038;53.200;6.530;2023-03-23T08:54:34;24.80;;;4.90;;
76236;SDS011;65038;53.200;6.530;2023-03-23T08:57:00;23.58;;;4.00;;
76236;SDS011;65038;53.200;6.530;2023-03-23T08:59:26;24.17;;;4.47;;
76236;SDS011;65038;53.200;6.530;2023-03-23T09:01:53;22.80;;;4.30;;
76236;SDS011;65038;53.200;6.530;2023-03-23T09:04:19;22.50;;;4.38;;
76236;SDS011;65038;53.200;6.530;2023-03-23T09:06:45;20.58;;;4.15;;
76236;SDS011;65038;53.200;6.530;2023-03-23T09:09:12;18.65;;;4.40;;
76236;SDS011;65038;53.200;6.530;2023-03-23T09:11:38;23.88;;;4.78;;
76236;SDS011;65038;53.200;6.530;2023-03-23T09:14:05;24.48;;;4.47;;
76236;SDS011;65038;53.200;6.530;2023-03-23T09:16:32;23.20;;;3.95;;
76236;SDS011;65038;53.200;6.530;2023-03-23T09:18:58;24.50;;;4.93;;
76236;SDS011;65038;53.200;6.530;2023-03-23T09:21:26;23.95;;;4.30;;
76236;SDS011;65038;53.200;6.530;2023-03-23T09:23:52;19.75;;;4.55;;
76236;SDS011;65038;53.200;6.530;2023-03-23T09:26:21;18.20;;;4.45;;
76236;SDS011;65038;53.200;6.530;2023-03-23T09:28:47;20.23;;;4.53;;
76236;SDS011;65038;53.200;6.530;2023-03-23T09:31:13;22.90;;;4.40;;
76236;SDS011;65038;53.200;6.530;2023-03-23T09:33:39;23.48;;;4.45;;
76236;SDS011;65038;53.200;6.530;2023-03-23T09:36:06;24.23;;;4.35;;
76236;SDS011;65038;53.200;6.530;2023-03-23T09:38:33;25.38;;;4.43;;
76236;SDS011;65038;53.200;6.530;2023-03-23T09:41:17;22.67;;;4.30;;
76236;SDS011;65038;53.200;6.530;2023-03-23T09:48:54;18.70;;;3.90;;
76236;SDS011;65038;53.200;6.530;2023-03-23T09:56:38;23.02;;;4.22;;
76236;SDS011;65038;53.200;6.530;2023-03-23T10:01:50;18.13;;;3.58;;
76236;SDS011;65038;53.200;6.530;2023-03-23T10:06:56;25.35;;;4.38;;
76236;SDS011;65038;53.200;6.530;2023-03-23T10:09:23;17.70;;;3.50;;
76236;SDS011;65038;53.200;6.530;2023-03-23T10:12:13;18.65;;;3.83;;
76236;SDS011;65038;53.200;6.530;2023-03-23T10:17:51;20.52;;;3.60;;
76236;SDS011;65038;53.200;6.530;2023-03-23T10:20:24;18.70;;;3.80;;
76236;SDS011;65038;53.200;6.530;2023-03-23T10:22:56;13.10;;;3.17;;
76236;SDS011;65038;53.200;6.530;2023-03-23T10:25:25;15.88;;;3.72;;
76236;SDS011;65038;53.200;6.530;2023-03-23T10:30:27;19.38;;;3.83;;
76236;SDS011;65038;53.200;6.530;2023-03-23T10:32:55;19.23;;;3.90;;
76236;SDS011;65038;53.200;6.530;2023-03-23T10:35:25;17.35;;;3.60;;
76236;SDS011;65038;53.200;6.530;2023-03-23T10:37:56;19.63;;;4.55;;
76236;SDS011;65038;53.200;6.530;2023-03-23T10:40:28;18.73;;;4.00;;
76236;SDS011;65038;53.200;6.530;2023-03-23T10:42:55;19.90;;;3.90;;
76236;SDS011;65038;53.200;6.530;2023-03-23T10:45:29;20.85;;;4.25;;
76236;SDS011;65038;53.200;6.530;2023-03-23T10:48:14;15.15;;;3.38;;
76236;SDS011;65038;53.200;6.530;2023-03-23T10:50:42;19.52;;;3.47;;
76236;SDS011;65038;53.200;6.530;2023-03-23T10:53:26;17.02;;;3.75;;
76236;SDS011;65038;53.200;6.530;2023-03-23T10:55:54;18.35;;;4.00;;
76236;SDS011;65038;53.200;6.530;2023-03-23T10:58:22;18.48;;;4.05;;
76236;SDS011;65038;53.200;6.530;2023-03-23T11:00:49;19.45;;;3.97;;
76236;SDS011;65038;53.200;6.530;2023-03-23T11:05:43;18.17;;;3.40;;
76236;SDS011;65038;53.200;6.530;2023-03-23T11:08:11;14.65;;;3.03;;
76236;SDS011;65038;53.200;6.530;2023-03-23T11:10:39;11.60;;;2.72;;
76236;SDS011;65038;53.200;6.530;2023-03-23T11:13:10;14.88;;;2.97;;
76236;SDS011;65038;53.200;6.530;2023-03-23T11:15:39;15.07;;;3.40;;
76236;SDS011;65038;53.200;6.530;2023-03-23T11:18:08;13.38;;;3.25;;
76236;SDS011;65038;53.200;6.530;2023-03-23T11:20:44;12.45;;;3.05;;
76236;SDS011;65038;53.200;6.530;2023-03-23T11:28:34;12.02;;;3.10;;
76236;SDS011;65038;53.200;6.530;2023-03-23T11:31:02;15.15;;;3.35;;
76236;SDS011;65038;53.200;6.530;2023-03-23T11:33:29;17.02;;;3.20;;
76236;SDS011;65038;53.200;6.530;2023-03-23T11:35:55;19.23;;;3.72;;
76236;SDS011;65038;53.200;6.530;2023-03-23T11:38:22;14.38;;;3.10;;
76236;SDS011;65038;53.200;6.530;2023-03-23T11:40:51;14.27;;;2.88;;
76236;SDS011;65038;53.200;6.530;2023-03-23T11:43:24;15.73;;;3.05;;
76236;SDS011;65038;53.200;6.530;2023-03-23T11:48:40;9.80;;;2.40;;
76236;SDS011;65038;53.200;6.530;2023-03-23T11:51:11;11.13;;;2.85;;
76236;SDS011;65038;53.200;6.530;2023-03-23T11:56:11;9.85;;;2.53;;
76236;SDS011;65038;53.200;6.530;2023-03-23T11:58:39;13.60;;;2.80;;
76236;SDS011;65038;53.200;6.530;2023-03-23T12:01:11;10.52;;;2.47;;
76236;SDS011;65038;53.200;6.530;2023-03-23T12:09:12;10.65;;;2.53;;
76236;SDS011;65038;53.200;6.530;2023-03-23T12:14:32;8.65;;;2.60;;
76236;SDS011;65038;53.200;6.530;2023-03-23T12:17:14;10.80;;;2.20;;
76236;SDS011;65038;53.200;6.530;2023-03-23T12:24:50;13.07;;;2.40;;
76236;SDS011;65038;53.200;6.530;2023-03-23T12:27:22;10.52;;;2.47;;
76236;SDS011;65038;53.200;6.530;2023-03-23T12:32:26;15.85;;;2.97;;
76236;SDS011;65038;53.200;6.530;2023-03-23T12:40:19;13.70;;;2.47;;
76236;SDS011;65038;53.200;6.530;2023-03-23T12:45:45;12.95;;;2.58;;
76236;SDS011;65038;53.200;6.530;2023-03-23T12:48:19;8.52;;;2.45;;
76236;SDS011;65038;53.200;6.530;2023-03-23T12:51:09;11.27;;;2.45;;
76236;SDS011;65038;53.200;6.530;2023-03-23T12:53:33;12.48;;;2.92;;
76236;SDS011;65038;53.200;6.530;2023-03-23T12:56:18;9.50;;;2.63;;
76236;SDS011;65038;53.200;6.530;2023-03-23T12:58:46;11.88;;;2.45;;
76236;SDS011;65038;53.200;6.530;2023-03-23T13:03:47;11.82;;;2.20;;
76236;SDS011;65038;53.200;6.530;2023-03-23T13:11:24;12.75;;;2.40;;
76236;SDS011;65038;53.200;6.530;2023-03-23T13:13:52;13.88;;;2.33;;
76236;SDS011;65038;53.200;6.530;2023-03-23T13:21:41;13.23;;;2.90;;
76236;SDS011;65038;53.200;6.530;2023-03-23T13:24:10;15.50;;;2.80;;
76236;SDS011;65038;53.200;6.530;2023-03-23T13:26:39;16.13;;;3.22;;
76236;SDS011;65038;53.200;6.530;2023-03-23T13:29:06;19.35;;;3.17;;
76236;SDS011;65038;53.200;6.530;2023-03-23T13:31:36;12.75;;;2.67;;
76236;SDS011;65038;53.200;6.530;2023-03-23T13:34:05;12.43;;;2.97;;
76236;SDS011;65038;53.200;6.530;2023-03-23T13:36:41;15.68;;;3.28;;
76236;SDS011;65038;53.200;6.530;2023-03-23T13:39:18;16.17;;;3.35;;
76236;SDS011;65038;53.200;6.530;2023-03-23T13:41:46;14.38;;;2.92;;
76236;SDS011;65038;53.200;6.530;2023-03-23T13:44:17;12.35;;;2.70;;
76236;SDS011;65038;53.200;6.530;2023-03-23T13:46:53;13.70;;;3.00;;
76236;SDS011;65038;53.200;6.530;2023-03-23T13:49:20;15.48;;;3.10;;
76236;SDS011;65038;53.200;6.530;2023-03-23T13:56:53;14.93;;;2.88;;
76236;SDS011;65038;53.200;6.530;2023-03-23T14:01:52;17.85;;;3.22;;
76236;SDS011;65038;53.200;6.530;2023-03-23T14:04:19;12.25;;;2.58;;
76236;SDS011;65038;53.200;6.530;2023-03-23T14:06:46;13.48;;;2.85;;
76236;SDS011;65038;53.200;6.530;2023-03-23T14:09:15;14.45;;;2.97;;
76236;SDS011;65038;53.200;6.530;2023-03-23T14:14:41;10.52;;;2.92;;
76236;SDS011;65038;53.200;6.530;2023-03-23T14:17:25;11.95;;;2.75;;
76236;SDS011;65038;53.200;6.530;2023-03-23T14:19:55;15.18;;;2.78;;
76236;SDS011;65038;53.200;6.530;2023-03-23T14:22:24;14.48;;;2.60;;
76236;SDS011;65038;53.200;6.530;2023-03-23T14:24:50;11.82;;;2.45;;
76236;SDS011;65038;53.200;6.530;2023-03-23T14:27:18;12.90;;;2.95;;
76236;SDS011;65038;53.200;6.530;2023-03-23T14:29:45;16.55;;;3.20;;
76236;SDS011;65038;53.200;6.530;2023-03-23T14:32:17;11.63;;;2.80;;
76236;SDS011;65038;53.200;6.530;2023-03-23T14:34:46;11.20;;;2.42;;
76236;SDS011;65038;53.200;6.530;2023-03-23T14:37:13;11.52;;;2.50;;
76236;SDS011;65038;53.200;6.530;2023-03-23T14:39:40;12.00;;;2.33;;
76236;SDS011;65038;53.200;6.530;2023-03-23T14:42:11;10.88;;;2.40;;
76236;SDS011;65038;53.200;6.530;2023-03-23T14:44:44;9.00;;;1.90;;
76236;SDS011;65038;53.200;6.530;2023-03-23T14:47:13;11.35;;;2.70;;
76236;SDS011;65038;53.200;6.530;2023-03-23T14:49:42;7.82;;;2.00;;
76236;SDS011;65038;53.200;6.530;2023-03-23T14:54:35;7.85;;;1.90;;
76236;SDS011;65038;53.200;6.530;2023-03-23T14:57:05;10.43;;;2.25;;
76236;SDS011;65038;53.200;6.530;2023-03-23T14:59:35;8.23;;;2.00;;
76236;SDS011;65038;53.200;6.530;2023-03-23T15:02:01;11.98;;;2.58;;
76236;SDS011;65038;53.200;6.530;2023-03-23T15:04:27;8.00;;;2.15;;
76236;SDS011;65038;53.200;6.530;2023-03-23T15:07:03;9.45;;;2.30;;
76236;SDS011;65038;53.200;6.530;2023-03-23T15:09:29;16.50;;;3.13;;
76236;SDS011;65038;53.200;6.530;2023-03-23T15:11:57;10.27;;;2.08;;
76236;SDS011;65038;53.200;6.530;2023-03-23T15:14:29;9.90;;;2.53;;
76236;SDS011;65038;53.200;6.530;2023-03-23T15:16:55;9.93;;;2.30;;
76236;SDS011;65038;53.200;6.530;2023-03-23T15:19:42;9.88;;;2.10;;
76236;SDS011;65038;53.200;6.530;2023-03-23T15:25:01;8.90;;;1.98;;
76236;SDS011;65038;53.200;6.530;2023-03-23T15:27:28;8.55;;;2.15;;
76236;SDS011;65038;53.200;6.530;2023-03-23T15:29:59;7.90;;;1.98;;
76236;SDS011;65038;53.200;6.530;2023-03-23T15:32:29;10.52;;;2.00;;
76236;SDS011;65038;53.200;6.530;2023-03-23T15:34:56;10.02;;;2.17;;
76236;SDS011;65038;53.200;6.530;2023-03-23T15:38:06;8.73;;;1.83;;
76236;SDS011;65038;53.200;6.530;2023-03-23T15:40:16;8.23;;;1.75;;
76236;SDS011;65038;53.200;6.530;2023-03-23T15:42:42;9.35;;;2.00;;
76236;SDS011;65038;53.200;6.530;2023-03-23T15:52:39;10.25;;;2.20;;
76236;SDS011;65038;53.200;6.530;2023-03-23T15:55:27;8.32;;;2.40;;
76236;SDS011;65038;53.200;6.530;2023-03-23T15:57:52;10.02;;;2.20;;
76236;SDS011;65038;53.200;6.530;2023-03-23T16:00:18;13.25;;;2.80;;
76236;SDS011;65038;53.200;6.530;2023-03-23T16:02:45;12.00;;;2.50;;
76236;SDS011;65038;53.200;6.530;2023-03-23T16:05:12;12.75;;;2.40;;
76236;SDS011;65038;53.200;6.530;2023-03-23T16:07:38;14.43;;;3.00;;
76236;SDS011;65038;53.200;6.530;2023-03-23T16:10:05;14.77;;;3.10;;
76236;SDS011;65038;53.200;6.530;2023-03-23T16:12:31;16.38;;;3.10;;
76236;SDS011;65038;53.200;6.530;2023-03-23T16:14:57;12.63;;;2.95;;
76236;SDS011;65038;53.200;6.530;2023-03-23T16:17:23;14.93;;;2.90;;
76236;SDS011;65038;53.200;6.530;2023-03-23T16:19:49;12.40;;;2.55;;
76236;SDS011;65038;53.200;6.530;2023-03-23T16:22:15;11.30;;;3.50;;
76236;SDS011;65038;53.200;6.530;2023-03-23T16:24:41;13.13;;;3.20;;
76236;SDS011;65038;53.200;6.530;2023-03-23T16:27:08;14.32;;;2.63;;
76236;SDS011;65038;53.200;6.530;2023-03-23T16:29:34;13.10;;;3.20;;
76236;SDS011;65038;53.200;6.530;2023-03-23T16:32:00;12.70;;;2.72;;
76236;SDS011;65038;53.200;6.530;2023-03-23T16:34:26;11.82;;;2.50;;
76236;SDS011;65038;53.200;6.530;2023-03-23T16:36:56;17.75;;;4.45;;